sensor_id;sensor_type;location;lat;lon;timestamp;P1;durP1;ratioP1;P2;durP2;ratioP2
61391;SDS011;47261;52.892;5.738;2023-02-21T00:01:31;26.98;;;6.47;;
61391;SDS011;47261;52.892;5.738;2023-02-21T00:04:16;37.00;;;9.00;;
61391;SDS011;47261;52.892;5.738;2023-02-21T00:07:00;31.02;;;8.18;;
61391;SDS011;47261;52.892;5.738;2023-02-21T00:09:44;31.10;;;8.18;;
61391;SDS011;47261;52.892;5.738;2023-02-21T00:12:28;34.28;;;8.73;;
61391;SDS011;47261;52.892;5.738;2023-02-21T00:15:12;24.13;;;7.15;;
61391;SDS011;47261;52.892;5.738;2023-02-21T00:17:56;23.37;;;5.90;;
61391;SDS011;47261;52.892;5.738;2023-02-21T00:20:40;27.27;;;7.05;;
61391;SDS011;47261;52.892;5.738;2023-02-21T00:23:24;22.48;;;7.35;;
61391;SDS011;47261;52.892;5.738;2023-02-21T00:26:08;14.38;;;5.85;;
61391;SDS011;47261;52.892;5.738;2023-02-21T00:28:52;23.38;;;6.68;;
61391;SDS011;47261;52.892;5.738;2023-02-21T00:31:36;26.83;;;8.73;;
61391;SDS011;47261;52.892;5.738;2023-02-21T00:34:20;30.13;;;8.30;;
61391;SDS011;47261;52.892;5.738;2023-02-21T00:37:04;25.33;;;8.05;;
61391;SDS011;47261;52.892;5.738;2023-02-21T00:39:49;28.63;;;7.30;;
61391;SDS011;47261;52.892;5.738;2023-02-21T00:42:33;34.05;;;9.80;;
61391;SDS011;47261;52.892;5.738;2023-02-21T00:45:18;30.47;;;9.60;;
61391;SDS011;47261;52.892;5.738;2023-02-21T00:48:02;28.15;;;7.68;;
61391;SDS011;47261;52.892;5.738;2023-02-21T00:50:46;32.13;;;9.00;;
61391;SDS011;47261;52.892;5.738;2023-02-21T00:53:30;42.38;;;10.95;;
61391;SDS011;47261;52.892;5.738;2023-02-21T00:56:14;27.85;;;8.30;;
61391;SDS011;47261;52.892;5.738;2023-02-21T00:58:58;25.63;;;8.30;;
61391;SDS011;47261;52.892;5.738;2023-02-21T01:01:43;27.98;;;7.80;;
61391;SDS011;47261;52.892;5.738;2023-02-21T01:04:27;26.52;;;7.07;;
61391;SDS011;47261;52.892;5.738;2023-02-21T01:07:11;21.13;;;7.43;;
61391;SDS011;47261;52.892;5.738;2023-02-21T01:09:56;22.08;;;7.13;;
61391;SDS011;47261;52.892;5.738;2023-02-21T01:12:40;30.27;;;8.33;;
61391;SDS011;47261;52.892;5.738;2023-02-21T01:15:24;34.50;;;9.65;;
61391;SDS011;47261;52.892;5.738;2023-02-21T01:18:08;34.63;;;7.78;;
61391;SDS011;47261;52.892;5.738;2023-02-21T01:20:53;27.75;;;8.40;;
61391;SDS011;47261;52.892;5.738;2023-02-21T01:23:37;42.20;;;12.13;;
61391;SDS011;47261;52.892;5.738;2023-02-21T01:26:22;20.60;;;7.10;;
61391;SDS011;47261;52.892;5.738;2023-02-21T01:29:06;25.05;;;7.53;;
61391;SDS011;47261;52.892;5.738;2023-02-21T01:31:50;41.88;;;11.95;;
61391;SDS011;47261;52.892;5.738;2023-02-21T01:34:34;30.13;;;8.68;;
61391;SDS011;47261;52.892;5.738;2023-02-21T01:37:19;36.38;;;9.88;;
61391;SDS011;47261;52.892;5.738;2023-02-21T01:40:03;22.93;;;8.17;;
61391;SDS011;47261;52.892;5.738;2023-02-21T01:42:47;25.15;;;7.85;;
61391;SDS011;47261;52.892;5.738;2023-02-21T01:48:17;29.77;;;9.15;;
61391;SDS011;47261;52.892;5.738;2023-02-21T01:51:05;26.48;;;10.15;;
61391;SDS011;47261;52.892;5.738;2023-02-21T01:53:51;27.83;;;9.60;;
61391;SDS011;47261;52.892;5.738;2023-02-21T01:56:37;23.42;;;8.43;;
61391;SDS011;47261;52.892;5.738;2023-02-21T01:59:22;23.90;;;8.93;;
61391;SDS011;47261;52.892;5.738;2023-02-21T02:05:02;22.98;;;8.48;;
61391;SDS011;47261;52.892;5.738;2023-02-21T02:07:47;21.27;;;8.57;;
61391;SDS011;47261;52.892;5.738;2023-02-21T02:10:33;26.38;;;8.98;;
61391;SDS011;47261;52.892;5.738;2023-02-21T02:16:02;31.67;;;9.68;;
61391;SDS011;47261;52.892;5.738;2023-02-21T02:21:25;41.90;;;13.20;;
61391;SDS011;47261;52.892;5.738;2023-02-21T02:24:35;20.40;;;9.90;;
61391;SDS011;47261;52.892;5.738;2023-02-21T02:30:35;16.88;;;8.15;;
61391;SDS011;47261;52.892;5.738;2023-02-21T02:43:53;36.83;;;11.87;;
61391;SDS011;47261;52.892;5.738;2023-02-21T02:46:26;32.47;;;13.25;;
61391;SDS011;47261;52.892;5.738;2023-02-21T02:51:26;41.90;;;13.80;;
61391;SDS011;47261;52.892;5.738;2023-02-21T02:53:52;44.30;;;14.55;;
61391;SDS011;47261;52.892;5.738;2023-02-21T02:56:18;46.73;;;16.23;;
61391;SDS011;47261;52.892;5.738;2023-02-21T03:04:30;47.72;;;15.13;;
61391;SDS011;47261;52.892;5.738;2023-02-21T03:15:17;36.83;;;12.60;;
61391;SDS011;47261;52.892;5.738;2023-02-21T03:18:02;51.58;;;14.07;;
61391;SDS011;47261;52.892;5.738;2023-02-21T03:20:30;46.83;;;14.73;;
61391;SDS011;47261;52.892;5.738;2023-02-21T03:22:57;39.57;;;12.90;;
61391;SDS011;47261;52.892;5.738;2023-02-21T03:25:25;37.83;;;13.32;;
61391;SDS011;47261;52.892;5.738;2023-02-21T03:27:52;45.15;;;17.27;;
61391;SDS011;47261;52.892;5.738;2023-02-21T03:30:19;38.20;;;12.70;;
61391;SDS011;47261;52.892;5.738;2023-02-21T03:32:46;46.88;;;14.38;;
61391;SDS011;47261;52.892;5.738;2023-02-21T03:35:15;44.70;;;16.00;;
61391;SDS011;47261;52.892;5.738;2023-02-21T03:37:46;45.40;;;17.70;;
61391;SDS011;47261;52.892;5.738;2023-02-21T03:40:19;29.80;;;11.77;;
61391;SDS011;47261;52.892;5.738;2023-02-21T03:42:51;37.10;;;12.40;;
61391;SDS011;47261;52.892;5.738;2023-02-21T03:45:17;36.65;;;14.48;;
61391;SDS011;47261;52.892;5.738;2023-02-21T03:47:43;38.73;;;15.47;;
61391;SDS011;47261;52.892;5.738;2023-02-21T03:50:08;41.30;;;16.33;;
61391;SDS011;47261;52.892;5.738;2023-02-21T03:52:34;54.80;;;17.73;;
61391;SDS011;47261;52.892;5.738;2023-02-21T03:55:00;50.07;;;18.70;;
61391;SDS011;47261;52.892;5.738;2023-02-21T03:57:25;42.05;;;16.45;;
61391;SDS011;47261;52.892;5.738;2023-02-21T03:59:51;51.50;;;17.27;;
61391;SDS011;47261;52.892;5.738;2023-02-21T04:02:18;34.58;;;14.55;;
61391;SDS011;47261;52.892;5.738;2023-02-21T04:04:44;30.55;;;13.23;;
61391;SDS011;47261;52.892;5.738;2023-02-21T04:07:12;40.08;;;15.35;;
61391;SDS011;47261;52.892;5.738;2023-02-21T04:09:39;39.37;;;12.70;;
61391;SDS011;47261;52.892;5.738;2023-02-21T04:12:05;42.17;;;16.58;;
61391;SDS011;47261;52.892;5.738;2023-02-21T04:14:31;37.70;;;15.63;;
61391;SDS011;47261;52.892;5.738;2023-02-21T04:16:57;37.38;;;14.07;;
61391;SDS011;47261;52.892;5.738;2023-02-21T04:19:23;43.43;;;17.50;;
61391;SDS011;47261;52.892;5.738;2023-02-21T04:21:48;26.33;;;10.40;;
61391;SDS011;47261;52.892;5.738;2023-02-21T04:24:14;50.30;;;17.63;;
61391;SDS011;47261;52.892;5.738;2023-02-21T04:26:40;49.17;;;17.42;;
61391;SDS011;47261;52.892;5.738;2023-02-21T04:29:05;27.03;;;10.43;;
61391;SDS011;47261;52.892;5.738;2023-02-21T04:31:31;42.22;;;16.52;;
61391;SDS011;47261;52.892;5.738;2023-02-21T04:33:58;46.63;;;17.00;;
61391;SDS011;47261;52.892;5.738;2023-02-21T04:36:23;35.72;;;13.77;;
61391;SDS011;47261;52.892;5.738;2023-02-21T04:38:50;43.30;;;16.15;;
61391;SDS011;47261;52.892;5.738;2023-02-21T04:41:15;31.27;;;13.93;;
61391;SDS011;47261;52.892;5.738;2023-02-21T04:43:41;40.47;;;16.63;;
61391;SDS011;47261;52.892;5.738;2023-02-21T04:46:08;41.67;;;15.40;;
61391;SDS011;47261;52.892;5.738;2023-02-21T04:48:34;41.47;;;15.60;;
61391;SDS011;47261;52.892;5.738;2023-02-21T04:51:00;41.07;;;14.47;;
61391;SDS011;47261;52.892;5.738;2023-02-21T04:53:26;43.90;;;16.00;;
61391;SDS011;47261;52.892;5.738;2023-02-21T04:55:51;45.42;;;15.40;;
61391;SDS011;47261;52.892;5.738;2023-02-21T04:58:17;28.17;;;11.33;;
61391;SDS011;47261;52.892;5.738;2023-02-21T05:00:43;46.95;;;15.98;;
61391;SDS011;47261;52.892;5.738;2023-02-21T05:03:08;23.00;;;9.10;;
61391;SDS011;47261;52.892;5.738;2023-02-21T05:05:34;35.37;;;14.57;;
61391;SDS011;47261;52.892;5.738;2023-02-21T05:07:59;34.50;;;13.02;;
61391;SDS011;47261;52.892;5.738;2023-02-21T05:10:25;44.53;;;14.73;;
61391;SDS011;47261;52.892;5.738;2023-02-21T05:12:50;45.05;;;16.88;;
61391;SDS011;47261;52.892;5.738;2023-02-21T05:15:16;31.35;;;13.05;;
61391;SDS011;47261;52.892;5.738;2023-02-21T05:17:42;48.97;;;16.37;;
61391;SDS011;47261;52.892;5.738;2023-02-21T05:20:09;37.55;;;15.57;;
61391;SDS011;47261;52.892;5.738;2023-02-21T05:22:39;46.15;;;18.40;;
61391;SDS011;47261;52.892;5.738;2023-02-21T05:25:18;46.33;;;16.27;;
61391;SDS011;47261;52.892;5.738;2023-02-21T05:27:46;43.45;;;15.32;;
61391;SDS011;47261;52.892;5.738;2023-02-21T05:30:13;46.63;;;17.63;;
61391;SDS011;47261;52.892;5.738;2023-02-21T05:32:40;46.97;;;18.38;;
61391;SDS011;47261;52.892;5.738;2023-02-21T05:35:06;47.13;;;17.45;;
61391;SDS011;47261;52.892;5.738;2023-02-21T05:37:33;49.38;;;17.27;;
61391;SDS011;47261;52.892;5.738;2023-02-21T05:39:58;46.37;;;18.53;;
61391;SDS011;47261;52.892;5.738;2023-02-21T05:42:24;36.93;;;14.67;;
61391;SDS011;47261;52.892;5.738;2023-02-21T05:44:49;44.83;;;15.63;;
61391;SDS011;47261;52.892;5.738;2023-02-21T05:47:15;37.00;;;13.70;;
61391;SDS011;47261;52.892;5.738;2023-02-21T05:49:41;41.63;;;17.08;;
61391;SDS011;47261;52.892;5.738;2023-02-21T05:52:10;37.83;;;15.25;;
61391;SDS011;47261;52.892;5.738;2023-02-21T05:54:36;36.28;;;14.07;;
61391;SDS011;47261;52.892;5.738;2023-02-21T05:57:02;50.30;;;17.67;;
61391;SDS011;47261;52.892;5.738;2023-02-21T05:59:28;27.00;;;12.13;;
61391;SDS011;47261;52.892;5.738;2023-02-21T06:01:53;32.65;;;12.00;;
61391;SDS011;47261;52.892;5.738;2023-02-21T06:04:20;35.30;;;14.17;;
61391;SDS011;47261;52.892;5.738;2023-02-21T06:06:46;52.28;;;19.85;;
61391;SDS011;47261;52.892;5.738;2023-02-21T06:09:12;44.55;;;18.70;;
61391;SDS011;47261;52.892;5.738;2023-02-21T06:11:38;52.80;;;18.63;;
61391;SDS011;47261;52.892;5.738;2023-02-21T06:14:12;40.35;;;15.73;;
61391;SDS011;47261;52.892;5.738;2023-02-21T06:16:39;52.45;;;19.05;;
61391;SDS011;47261;52.892;5.738;2023-02-21T06:19:06;41.90;;;15.83;;
61391;SDS011;47261;52.892;5.738;2023-02-21T06:21:32;47.97;;;18.25;;
61391;SDS011;47261;52.892;5.738;2023-02-21T06:23:59;31.50;;;12.75;;
61391;SDS011;47261;52.892;5.738;2023-02-21T06:26:25;51.70;;;18.83;;
61391;SDS011;47261;52.892;5.738;2023-02-21T06:28:51;46.47;;;18.70;;
61391;SDS011;47261;52.892;5.738;2023-02-21T06:31:18;49.07;;;18.13;;
61391;SDS011;47261;52.892;5.738;2023-02-21T06:33:45;34.25;;;12.63;;
61391;SDS011;47261;52.892;5.738;2023-02-21T06:36:15;48.88;;;19.10;;
61391;SDS011;47261;52.892;5.738;2023-02-21T06:38:46;47.97;;;17.38;;
61391;SDS011;47261;52.892;5.738;2023-02-21T06:41:15;49.25;;;17.10;;
61391;SDS011;47261;52.892;5.738;2023-02-21T06:43:42;43.70;;;16.70;;
61391;SDS011;47261;52.892;5.738;2023-02-21T06:46:08;43.25;;;17.20;;
61391;SDS011;47261;52.892;5.738;2023-02-21T06:48:33;41.87;;;16.17;;
61391;SDS011;47261;52.892;5.738;2023-02-21T06:50:59;30.10;;;10.33;;
61391;SDS011;47261;52.892;5.738;2023-02-21T06:53:24;37.20;;;15.30;;
61391;SDS011;47261;52.892;5.738;2023-02-21T06:55:50;36.03;;;13.30;;
61391;SDS011;47261;52.892;5.738;2023-02-21T06:58:16;44.40;;;16.75;;
61391;SDS011;47261;52.892;5.738;2023-02-21T07:00:42;25.10;;;10.88;;
61391;SDS011;47261;52.892;5.738;2023-02-21T07:03:07;37.50;;;15.57;;
61391;SDS011;47261;52.892;5.738;2023-02-21T07:05:33;43.17;;;15.03;;
61391;SDS011;47261;52.892;5.738;2023-02-21T07:08:01;22.88;;;10.65;;
61391;SDS011;47261;52.892;5.738;2023-02-21T07:10:27;19.27;;;9.43;;
61391;SDS011;47261;52.892;5.738;2023-02-21T07:12:54;23.23;;;9.73;;
61391;SDS011;47261;52.892;5.738;2023-02-21T07:15:20;19.42;;;8.25;;
61391;SDS011;47261;52.892;5.738;2023-02-21T07:17:46;20.43;;;8.73;;
61391;SDS011;47261;52.892;5.738;2023-02-21T07:20:12;28.00;;;12.35;;
61391;SDS011;47261;52.892;5.738;2023-02-21T07:22:37;26.23;;;10.23;;
61391;SDS011;47261;52.892;5.738;2023-02-21T07:25:03;32.40;;;15.32;;
61391;SDS011;47261;52.892;5.738;2023-02-21T07:27:29;24.43;;;10.63;;
61391;SDS011;47261;52.892;5.738;2023-02-21T07:29:55;29.70;;;11.90;;
61391;SDS011;47261;52.892;5.738;2023-02-21T07:32:20;24.97;;;9.60;;
61391;SDS011;47261;52.892;5.738;2023-02-21T07:34:46;30.67;;;14.32;;
61391;SDS011;47261;52.892;5.738;2023-02-21T07:37:12;24.70;;;11.02;;
61391;SDS011;47261;52.892;5.738;2023-02-21T07:39:38;24.30;;;11.57;;
61391;SDS011;47261;52.892;5.738;2023-02-21T07:42:04;35.77;;;14.80;;
61391;SDS011;47261;52.892;5.738;2023-02-21T07:44:32;31.73;;;13.93;;
61391;SDS011;47261;52.892;5.738;2023-02-21T07:46:58;27.73;;;11.63;;
61391;SDS011;47261;52.892;5.738;2023-02-21T07:49:24;26.55;;;11.65;;
61391;SDS011;47261;52.892;5.738;2023-02-21T07:51:49;35.77;;;17.10;;
61391;SDS011;47261;52.892;5.738;2023-02-21T07:54:15;26.52;;;12.02;;
61391;SDS011;47261;52.892;5.738;2023-02-21T07:56:42;28.00;;;12.37;;
61391;SDS011;47261;52.892;5.738;2023-02-21T07:59:09;41.20;;;16.10;;
61391;SDS011;47261;52.892;5.738;2023-02-21T08:01:35;54.13;;;19.48;;
61391;SDS011;47261;52.892;5.738;2023-02-21T08:04:01;39.17;;;14.10;;
61391;SDS011;47261;52.892;5.738;2023-02-21T08:06:27;39.17;;;14.40;;
61391;SDS011;47261;52.892;5.738;2023-02-21T08:08:53;62.97;;;20.42;;
61391;SDS011;47261;52.892;5.738;2023-02-21T08:11:19;32.70;;;11.80;;
61391;SDS011;47261;52.892;5.738;2023-02-21T08:13:46;56.10;;;19.70;;
61391;SDS011;47261;52.892;5.738;2023-02-21T08:16:12;63.55;;;22.70;;
61391;SDS011;47261;52.892;5.738;2023-02-21T08:18:37;49.93;;;18.20;;
61391;SDS011;47261;52.892;5.738;2023-02-21T08:21:03;61.72;;;21.05;;
61391;SDS011;47261;52.892;5.738;2023-02-21T08:23:33;48.97;;;17.10;;
61391;SDS011;47261;52.892;5.738;2023-02-21T08:25:59;50.97;;;18.33;;
61391;SDS011;47261;52.892;5.738;2023-02-21T08:28:24;32.07;;;12.33;;
61391;SDS011;47261;52.892;5.738;2023-02-21T08:30:50;52.17;;;18.77;;
61391;SDS011;47261;52.892;5.738;2023-02-21T08:33:16;43.13;;;18.45;;
61391;SDS011;47261;52.892;5.738;2023-02-21T08:35:42;48.77;;;19.33;;
61391;SDS011;47261;52.892;5.738;2023-02-21T08:38:08;54.33;;;20.45;;
61391;SDS011;47261;52.892;5.738;2023-02-21T08:40:34;52.10;;;19.30;;
61391;SDS011;47261;52.892;5.738;2023-02-21T08:43:00;35.28;;;14.38;;
61391;SDS011;47261;52.892;5.738;2023-02-21T08:45:26;23.97;;;10.47;;
61391;SDS011;47261;52.892;5.738;2023-02-21T08:47:53;28.27;;;12.35;;
61391;SDS011;47261;52.892;5.738;2023-02-21T08:50:19;25.00;;;11.25;;
61391;SDS011;47261;52.892;5.738;2023-02-21T08:52:47;28.30;;;13.77;;
61391;SDS011;47261;52.892;5.738;2023-02-21T08:55:14;31.30;;;14.37;;
61391;SDS011;47261;52.892;5.738;2023-02-21T08:57:40;25.10;;;10.32;;
61391;SDS011;47261;52.892;5.738;2023-02-21T09:00:06;28.55;;;12.20;;
61391;SDS011;47261;52.892;5.738;2023-02-21T09:02:36;35.40;;;16.70;;
61391;SDS011;47261;52.892;5.738;2023-02-21T09:05:15;32.67;;;14.00;;
61391;SDS011;47261;52.892;5.738;2023-02-21T09:07:43;41.05;;;16.33;;
61391;SDS011;47261;52.892;5.738;2023-02-21T09:10:11;26.67;;;10.75;;
61391;SDS011;47261;52.892;5.738;2023-02-21T09:12:37;46.23;;;17.53;;
61391;SDS011;47261;52.892;5.738;2023-02-21T09:15:04;38.03;;;14.25;;
61391;SDS011;47261;52.892;5.738;2023-02-21T09:17:30;54.25;;;20.52;;
61391;SDS011;47261;52.892;5.738;2023-02-21T09:19:58;43.80;;;16.77;;
61391;SDS011;47261;52.892;5.738;2023-02-21T09:22:25;25.02;;;11.80;;
61391;SDS011;47261;52.892;5.738;2023-02-21T09:24:50;55.23;;;19.20;;
61391;SDS011;47261;52.892;5.738;2023-02-21T09:27:16;40.83;;;16.37;;
61391;SDS011;47261;52.892;5.738;2023-02-21T09:29:41;33.40;;;12.80;;
61391;SDS011;47261;52.892;5.738;2023-02-21T09:32:07;49.30;;;18.10;;
61391;SDS011;47261;52.892;5.738;2023-02-21T09:34:33;47.58;;;18.73;;
61391;SDS011;47261;52.892;5.738;2023-02-21T09:36:58;37.77;;;15.70;;
61391;SDS011;47261;52.892;5.738;2023-02-21T09:39:28;27.95;;;10.68;;
61391;SDS011;47261;52.892;5.738;2023-02-21T09:41:54;39.73;;;15.40;;
61391;SDS011;47261;52.892;5.738;2023-02-21T09:44:25;48.55;;;18.75;;
61391;SDS011;47261;52.892;5.738;2023-02-21T09:47:03;44.30;;;17.38;;
61391;SDS011;47261;52.892;5.738;2023-02-21T09:49:30;38.13;;;17.20;;
61391;SDS011;47261;52.892;5.738;2023-02-21T09:51:59;44.40;;;17.57;;
61391;SDS011;47261;52.892;5.738;2023-02-21T09:54:38;41.67;;;16.30;;
61391;SDS011;47261;52.892;5.738;2023-02-21T09:57:11;39.45;;;15.77;;
61391;SDS011;47261;52.892;5.738;2023-02-21T09:59:39;26.67;;;11.93;;
61391;SDS011;47261;52.892;5.738;2023-02-21T10:10:18;40.63;;;15.52;;
61391;SDS011;47261;52.892;5.738;2023-02-21T10:13:06;37.13;;;15.63;;
61391;SDS011;47261;52.892;5.738;2023-02-21T10:16:11;38.55;;;15.98;;
61391;SDS011;47261;52.892;5.738;2023-02-21T10:18:47;30.23;;;14.17;;
61391;SDS011;47261;52.892;5.738;2023-02-21T10:21:39;36.72;;;16.83;;
61391;SDS011;47261;52.892;5.738;2023-02-21T10:24:23;41.80;;;17.58;;
61391;SDS011;47261;52.892;5.738;2023-02-21T10:27:06;32.63;;;15.23;;
61391;SDS011;47261;52.892;5.738;2023-02-21T10:29:41;22.08;;;11.07;;
61391;SDS011;47261;52.892;5.738;2023-02-21T10:32:16;26.60;;;9.77;;
61391;SDS011;47261;52.892;5.738;2023-02-21T10:34:42;22.15;;;9.25;;
61391;SDS011;47261;52.892;5.738;2023-02-21T10:39:47;32.50;;;12.52;;
61391;SDS011;47261;52.892;5.738;2023-02-21T10:42:27;23.40;;;10.18;;
61391;SDS011;47261;52.892;5.738;2023-02-21T10:44:57;33.17;;;15.20;;
61391;SDS011;47261;52.892;5.738;2023-02-21T10:47:44;34.72;;;14.43;;
61391;SDS011;47261;52.892;5.738;2023-02-21T10:53:04;40.47;;;16.33;;
61391;SDS011;47261;52.892;5.738;2023-02-21T10:55:31;32.65;;;13.90;;
61391;SDS011;47261;52.892;5.738;2023-02-21T10:57:57;21.77;;;9.93;;
61391;SDS011;47261;52.892;5.738;2023-02-21T11:00:34;33.38;;;14.70;;
61391;SDS011;47261;52.892;5.738;2023-02-21T11:03:05;31.98;;;13.82;;
61391;SDS011;47261;52.892;5.738;2023-02-21T11:05:40;22.50;;;9.33;;
61391;SDS011;47261;52.892;5.738;2023-02-21T11:11:29;35.15;;;12.27;;
61391;SDS011;47261;52.892;5.738;2023-02-21T11:16:41;26.75;;;10.40;;
61391;SDS011;47261;52.892;5.738;2023-02-21T11:19:09;28.30;;;11.87;;
61391;SDS011;47261;52.892;5.738;2023-02-21T11:21:37;29.50;;;12.20;;
61391;SDS011;47261;52.892;5.738;2023-02-21T11:24:04;31.10;;;12.57;;
61391;SDS011;47261;52.892;5.738;2023-02-21T11:26:46;18.48;;;8.10;;
61391;SDS011;47261;52.892;5.738;2023-02-21T11:29:17;31.70;;;11.87;;
61391;SDS011;47261;52.892;5.738;2023-02-21T11:31:49;22.67;;;9.23;;
61391;SDS011;47261;52.892;5.738;2023-02-21T11:34:16;32.90;;;13.82;;
61391;SDS011;47261;52.892;5.738;2023-02-21T11:36:44;35.88;;;12.73;;
61391;SDS011;47261;52.892;5.738;2023-02-21T11:41:51;44.17;;;17.67;;
61391;SDS011;47261;52.892;5.738;2023-02-21T11:44:36;37.70;;;15.48;;
61391;SDS011;47261;52.892;5.738;2023-02-21T11:47:24;35.67;;;14.98;;
61391;SDS011;47261;52.892;5.738;2023-02-21T11:49:55;32.17;;;12.85;;
61391;SDS011;47261;52.892;5.738;2023-02-21T11:52:29;35.83;;;11.80;;
61391;SDS011;47261;52.892;5.738;2023-02-21T11:55:01;26.33;;;11.37;;
61391;SDS011;47261;52.892;5.738;2023-02-21T11:57:43;23.80;;;11.98;;
61391;SDS011;47261;52.892;5.738;2023-02-21T12:06:05;34.80;;;12.80;;
61391;SDS011;47261;52.892;5.738;2023-02-21T12:08:41;31.10;;;12.43;;
61391;SDS011;47261;52.892;5.738;2023-02-21T12:20:05;41.45;;;17.00;;
61391;SDS011;47261;52.892;5.738;2023-02-21T12:23:11;43.63;;;17.13;;
61391;SDS011;47261;52.892;5.738;2023-02-21T12:26:00;42.60;;;18.02;;
61391;SDS011;47261;52.892;5.738;2023-02-21T12:36:55;34.77;;;14.77;;
61391;SDS011;47261;52.892;5.738;2023-02-21T12:48:03;41.10;;;14.90;;
61391;SDS011;47261;52.892;5.738;2023-02-21T12:50:40;42.97;;;16.37;;
61391;SDS011;47261;52.892;5.738;2023-02-21T12:53:11;49.42;;;19.33;;
61391;SDS011;47261;52.892;5.738;2023-02-21T12:59:09;42.38;;;16.98;;
61391;SDS011;47261;52.892;5.738;2023-02-21T13:01:43;43.00;;;17.23;;
61391;SDS011;47261;52.892;5.738;2023-02-21T13:04:48;38.13;;;17.00;;
61391;SDS011;47261;52.892;5.738;2023-02-21T13:07:32;43.00;;;16.52;;
61391;SDS011;47261;52.892;5.738;2023-02-21T13:12:42;38.17;;;15.23;;
61391;SDS011;47261;52.892;5.738;2023-02-21T13:15:22;37.72;;;16.30;;
61391;SDS011;47261;52.892;5.738;2023-02-21T13:17:54;32.20;;;12.40;;
61391;SDS011;47261;52.892;5.738;2023-02-21T13:20:25;31.80;;;12.88;;
61391;SDS011;47261;52.892;5.738;2023-02-21T13:28:45;32.90;;;12.73;;
61391;SDS011;47261;52.892;5.738;2023-02-21T13:31:25;38.90;;;16.23;;
61391;SDS011;47261;52.892;5.738;2023-02-21T13:34:07;34.10;;;12.50;;
61391;SDS011;47261;52.892;5.738;2023-02-21T13:41:38;24.80;;;11.20;;
61391;SDS011;47261;52.892;5.738;2023-02-21T13:44:23;16.43;;;7.67;;
61391;SDS011;47261;52.892;5.738;2023-02-21T13:52:50;25.77;;;11.30;;
61391;SDS011;47261;52.892;5.738;2023-02-21T14:08:26;36.15;;;15.52;;
61391;SDS011;47261;52.892;5.738;2023-02-21T14:11:15;31.40;;;13.37;;
61391;SDS011;47261;52.892;5.738;2023-02-21T14:26:36;37.03;;;15.82;;
61391;SDS011;47261;52.892;5.738;2023-02-21T14:29:11;40.63;;;17.87;;
61391;SDS011;47261;52.892;5.738;2023-02-21T14:35:12;41.42;;;17.42;;
61391;SDS011;47261;52.892;5.738;2023-02-21T14:39:59;29.73;;;12.50;;
61391;SDS011;47261;52.892;5.738;2023-02-21T14:42:45;37.53;;;15.90;;
61391;SDS011;47261;52.892;5.738;2023-02-21T14:53:10;29.08;;;11.23;;
61391;SDS011;47261;52.892;5.738;2023-02-21T14:58:55;35.95;;;15.65;;
61391;SDS011;47261;52.892;5.738;2023-02-21T15:09:40;35.27;;;15.77;;
61391;SDS011;47261;52.892;5.738;2023-02-21T15:12:12;39.80;;;18.60;;
61391;SDS011;47261;52.892;5.738;2023-02-21T15:14:48;41.00;;;15.35;;
61391;SDS011;47261;52.892;5.738;2023-02-21T15:17:17;32.38;;;13.65;;
61391;SDS011;47261;52.892;5.738;2023-02-21T15:19:45;49.57;;;19.50;;
61391;SDS011;47261;52.892;5.738;2023-02-21T15:22:24;43.03;;;16.52;;
61391;SDS011;47261;52.892;5.738;2023-02-21T15:27:33;46.45;;;17.27;;
61391;SDS011;47261;52.892;5.738;2023-02-21T15:32:59;31.87;;;14.53;;
61391;SDS011;47261;52.892;5.738;2023-02-21T15:35:40;34.45;;;14.32;;
61391;SDS011;47261;52.892;5.738;2023-02-21T15:38:17;37.95;;;15.35;;
61391;SDS011;47261;52.892;5.738;2023-02-21T15:40:44;35.55;;;17.10;;
61391;SDS011;47261;52.892;5.738;2023-02-21T15:43:23;59.97;;;23.20;;
61391;SDS011;47261;52.892;5.738;2023-02-21T15:45:53;38.03;;;16.07;;
61391;SDS011;47261;52.892;5.738;2023-02-21T15:48:21;36.15;;;15.70;;
61391;SDS011;47261;52.892;5.738;2023-02-21T15:50:47;28.60;;;12.18;;
61391;SDS011;47261;52.892;5.738;2023-02-21T15:55:44;36.10;;;14.45;;
61391;SDS011;47261;52.892;5.738;2023-02-21T15:58:20;44.80;;;16.90;;
61391;SDS011;47261;52.892;5.738;2023-02-21T16:01:07;57.95;;;19.02;;
61391;SDS011;47261;52.892;5.738;2023-02-21T16:03:35;48.80;;;18.42;;
61391;SDS011;47261;52.892;5.738;2023-02-21T16:06:23;55.97;;;19.73;;
61391;SDS011;47261;52.892;5.738;2023-02-21T16:11:40;57.83;;;19.05;;
61391;SDS011;47261;52.892;5.738;2023-02-21T16:14:17;70.75;;;20.77;;
61391;SDS011;47261;52.892;5.738;2023-02-21T16:16:49;18.52;;;8.52;;
61391;SDS011;47261;52.892;5.738;2023-02-21T16:19:20;20.83;;;9.80;;
61391;SDS011;47261;52.892;5.738;2023-02-21T16:21:47;47.95;;;17.48;;
61391;SDS011;47261;52.892;5.738;2023-02-21T16:24:28;56.78;;;21.13;;
61391;SDS011;47261;52.892;5.738;2023-02-21T16:27:02;58.70;;;18.70;;
61391;SDS011;47261;52.892;5.738;2023-02-21T16:29:36;51.50;;;19.33;;
61391;SDS011;47261;52.892;5.738;2023-02-21T16:32:01;43.53;;;16.73;;
61391;SDS011;47261;52.892;5.738;2023-02-21T16:34:28;43.45;;;16.25;;
61391;SDS011;47261;52.892;5.738;2023-02-21T16:37:03;60.53;;;18.97;;
61391;SDS011;47261;52.892;5.738;2023-02-21T16:39:30;63.35;;;20.02;;
61391;SDS011;47261;52.892;5.738;2023-02-21T16:41:56;40.60;;;14.65;;
61391;SDS011;47261;52.892;5.738;2023-02-21T16:44:22;60.22;;;18.27;;
61391;SDS011;47261;52.892;5.738;2023-02-21T16:46:49;68.17;;;19.07;;
61391;SDS011;47261;52.892;5.738;2023-02-21T16:49:16;36.88;;;12.82;;
61391;SDS011;47261;52.892;5.738;2023-02-21T16:51:41;21.87;;;9.77;;
61391;SDS011;47261;52.892;5.738;2023-02-21T16:54:08;69.10;;;19.17;;
61391;SDS011;47261;52.892;5.738;2023-02-21T16:56:35;52.90;;;16.90;;
61391;SDS011;47261;52.892;5.738;2023-02-21T16:59:04;69.30;;;17.60;;
61391;SDS011;47261;52.892;5.738;2023-02-21T17:01:35;68.50;;;19.67;;
61391;SDS011;47261;52.892;5.738;2023-02-21T17:04:01;61.03;;;17.60;;
61391;SDS011;47261;52.892;5.738;2023-02-21T17:06:29;59.90;;;17.73;;
61391;SDS011;47261;52.892;5.738;2023-02-21T17:08:55;100.55;;;20.52;;
61391;SDS011;47261;52.892;5.738;2023-02-21T17:11:22;82.20;;;20.33;;
61391;SDS011;47261;52.892;5.738;2023-02-21T17:13:49;57.42;;;14.13;;
61391;SDS011;47261;52.892;5.738;2023-02-21T17:16:15;88.57;;;20.45;;
61391;SDS011;47261;52.892;5.738;2023-02-21T17:18:44;38.70;;;13.40;;
61391;SDS011;47261;52.892;5.738;2023-02-21T17:21:10;79.45;;;19.40;;
61391;SDS011;47261;52.892;5.738;2023-02-21T17:23:36;73.30;;;17.50;;
61391;SDS011;47261;52.892;5.738;2023-02-21T17:26:02;35.42;;;10.98;;
61391;SDS011;47261;52.892;5.738;2023-02-21T17:28:28;87.35;;;19.83;;
61391;SDS011;47261;52.892;5.738;2023-02-21T17:30:54;79.77;;;19.43;;
61391;SDS011;47261;52.892;5.738;2023-02-21T17:33:20;92.10;;;19.75;;
61391;SDS011;47261;52.892;5.738;2023-02-21T17:35:46;80.40;;;19.63;;
61391;SDS011;47261;52.892;5.738;2023-02-21T17:38:11;100.70;;;24.27;;
61391;SDS011;47261;52.892;5.738;2023-02-21T17:40:37;100.97;;;22.75;;
61391;SDS011;47261;52.892;5.738;2023-02-21T17:43:03;77.63;;;18.40;;
61391;SDS011;47261;52.892;5.738;2023-02-21T17:45:32;78.10;;;22.35;;
61391;SDS011;47261;52.892;5.738;2023-02-21T17:48:00;85.15;;;21.70;;
61391;SDS011;47261;52.892;5.738;2023-02-21T17:50:27;102.90;;;20.40;;